sensor_id;sensor_type;location;lat;lon;timestamp;P1;durP1;ratioP1;P2;durP2;ratioP2
36303;SDS011;22335;49.800;8.596;2024-02-14T00:02:14;18.50;;;17.10;;
36303;SDS011;22335;49.800;8.596;2024-02-14T00:08:57;18.75;;;17.55;;
36303;SDS011;22335;49.800;8.596;2024-02-14T00:15:41;19.02;;;17.42;;
36303;SDS011;22335;49.800;8.596;2024-02-14T00:22:26;18.55;;;17.30;;
36303;SDS011;22335;49.800;8.596;2024-02-14T00:29:09;19.38;;;17.90;;
36303;SDS011;22335;49.800;8.596;2024-02-14T00:35:53;18.98;;;17.48;;
36303;SDS011;22335;49.800;8.596;2024-02-14T00:42:38;18.83;;;17.50;;
36303;SDS011;22335;49.800;8.596;2024-02-14T00:49:21;20.27;;;18.67;;
36303;SDS011;22335;49.800;8.596;2024-02-14T00:56:05;19.35;;;17.85;;
36303;SDS011;22335;49.800;8.596;2024-02-14T01:02:50;18.65;;;17.35;;
36303;SDS011;22335;49.800;8.596;2024-02-14T01:09:34;19.00;;;17.33;;
36303;SDS011;22335;49.800;8.596;2024-02-14T01:16:18;18.98;;;17.48;;
36303;SDS011;22335;49.800;8.596;2024-02-14T01:23:03;18.60;;;17.35;;
36303;SDS011;22335;49.800;8.596;2024-02-14T01:29:47;19.80;;;18.45;;
36303;SDS011;22335;49.800;8.596;2024-02-14T01:36:31;19.10;;;17.80;;
36303;SDS011;22335;49.800;8.596;2024-02-14T01:43:15;19.58;;;17.92;;
36303;SDS011;22335;49.800;8.596;2024-02-14T01:49:59;19.00;;;17.60;;
36303;SDS011;22335;49.800;8.596;2024-02-14T01:56:43;19.77;;;18.33;;
36303;SDS011;22335;49.800;8.596;2024-02-14T02:03:29;19.55;;;18.05;;
36303;SDS011;22335;49.800;8.596;2024-02-14T02:10:17;19.67;;;18.17;;
36303;SDS011;22335;49.800;8.596;2024-02-14T02:17:02;19.30;;;18.10;;
36303;SDS011;22335;49.800;8.596;2024-02-14T02:23:50;19.73;;;18.45;;
36303;SDS011;22335;49.800;8.596;2024-02-14T02:30:34;19.17;;;17.77;;
36303;SDS011;22335;49.800;8.596;2024-02-14T02:37:17;20.08;;;18.48;;
36303;SDS011;22335;49.800;8.596;2024-02-14T02:44:02;20.13;;;18.48;;
36303;SDS011;22335;49.800;8.596;2024-02-14T02:50:48;18.77;;;17.45;;
36303;SDS011;22335;49.800;8.596;2024-02-14T02:57:31;19.30;;;17.80;;
36303;SDS011;22335;49.800;8.596;2024-02-14T03:04:19;19.00;;;17.63;;
36303;SDS011;22335;49.800;8.596;2024-02-14T03:11:05;18.55;;;17.23;;
36303;SDS011;22335;49.800;8.596;2024-02-14T03:17:49;19.25;;;17.95;;
36303;SDS011;22335;49.800;8.596;2024-02-14T03:24:33;19.92;;;18.30;;
36303;SDS011;22335;49.800;8.596;2024-02-14T03:31:18;20.40;;;18.60;;
36303;SDS011;22335;49.800;8.596;2024-02-14T03:38:01;19.08;;;17.50;;
36303;SDS011;22335;49.800;8.596;2024-02-14T03:44:47;19.85;;;18.00;;
36303;SDS011;22335;49.800;8.596;2024-02-14T04:06:34;18.57;;;17.10;;
36303;SDS011;22335;49.800;8.596;2024-02-14T04:13:18;19.60;;;17.90;;
36303;SDS011;22335;49.800;8.596;2024-02-14T04:20:02;19.20;;;17.60;;
36303;SDS011;22335;49.800;8.596;2024-02-14T04:26:48;18.20;;;16.83;;
36303;SDS011;22335;49.800;8.596;2024-02-14T04:33:32;19.00;;;17.60;;
36303;SDS011;22335;49.800;8.596;2024-02-14T04:40:15;18.55;;;17.10;;
36303;SDS011;22335;49.800;8.596;2024-02-14T04:47:00;18.95;;;17.60;;
36303;SDS011;22335;49.800;8.596;2024-02-14T04:53:44;19.25;;;17.85;;
36303;SDS011;22335;49.800;8.596;2024-02-14T05:00:28;19.30;;;17.67;;
36303;SDS011;22335;49.800;8.596;2024-02-14T05:07:12;19.92;;;18.42;;
36303;SDS011;22335;49.800;8.596;2024-02-14T05:13:57;19.45;;;17.80;;
36303;SDS011;22335;49.800;8.596;2024-02-14T05:20:42;19.02;;;17.73;;
36303;SDS011;22335;49.800;8.596;2024-02-14T05:27:27;19.52;;;17.88;;
36303;SDS011;22335;49.800;8.596;2024-02-14T05:34:11;19.13;;;17.73;;
36303;SDS011;22335;49.800;8.596;2024-02-14T05:40:55;20.98;;;18.90;;
36303;SDS011;22335;49.800;8.596;2024-02-14T05:47:40;19.20;;;17.67;;
36303;SDS011;22335;49.800;8.596;2024-02-14T05:54:24;19.55;;;17.98;;
36303;SDS011;22335;49.800;8.596;2024-02-14T06:01:07;18.90;;;17.30;;
36303;SDS011;22335;49.800;8.596;2024-02-14T06:07:52;19.67;;;18.17;;
36303;SDS011;22335;49.800;8.596;2024-02-14T06:14:37;19.42;;;17.80;;
36303;SDS011;22335;49.800;8.596;2024-02-14T06:21:20;20.00;;;18.33;;
36303;SDS011;22335;49.800;8.596;2024-02-14T06:28:05;18.23;;;16.70;;
36303;SDS011;22335;49.800;8.596;2024-02-14T06:34:50;19.52;;;17.92;;
36303;SDS011;22335;49.800;8.596;2024-02-14T06:41:34;19.30;;;17.80;;
36303;SDS011;22335;49.800;8.596;2024-02-14T06:48:19;18.27;;;16.98;;
36303;SDS011;22335;49.800;8.596;2024-02-14T06:55:05;18.98;;;17.67;;
36303;SDS011;22335;49.800;8.596;2024-02-14T07:01:49;18.98;;;17.50;;
36303;SDS011;22335;49.800;8.596;2024-02-14T07:08:37;19.20;;;17.77;;
36303;SDS011;22335;49.800;8.596;2024-02-14T07:15:23;19.30;;;17.80;;
36303;SDS011;22335;49.800;8.596;2024-02-14T07:22:09;19.27;;;17.30;;
36303;SDS011;22335;49.800;8.596;2024-02-14T07:28:54;17.75;;;16.40;;
36303;SDS011;22335;49.800;8.596;2024-02-14T07:35:38;18.20;;;16.73;;
36303;SDS011;22335;49.800;8.596;2024-02-14T07:42:21;20.05;;;18.33;;
36303;SDS011;22335;49.800;8.596;2024-02-14T07:49:06;19.13;;;17.63;;
36303;SDS011;22335;49.800;8.596;2024-02-14T07:55:51;19.10;;;17.60;;
36303;SDS011;22335;49.800;8.596;2024-02-14T08:02:36;18.23;;;16.83;;
36303;SDS011;22335;49.800;8.596;2024-02-14T08:09:21;17.48;;;16.00;;
36303;SDS011;22335;49.800;8.596;2024-02-14T08:16:05;17.35;;;15.95;;
36303;SDS011;22335;49.800;8.596;2024-02-14T08:22:49;18.15;;;16.60;;
36303;SDS011;22335;49.800;8.596;2024-02-14T08:29:34;18.23;;;16.52;;
36303;SDS011;22335;49.800;8.596;2024-02-14T08:36:18;17.58;;;16.35;;
36303;SDS011;22335;49.800;8.596;2024-02-14T08:43:01;19.08;;;17.50;;
36303;SDS011;22335;49.800;8.596;2024-02-14T08:49:47;18.40;;;16.98;;
36303;SDS011;22335;49.800;8.596;2024-02-14T08:56:30;17.83;;;16.20;;
36303;SDS011;22335;49.800;8.596;2024-02-14T09:03:14;18.92;;;17.20;;
36303;SDS011;22335;49.800;8.596;2024-02-14T09:10:00;17.65;;;16.02;;
36303;SDS011;22335;49.800;8.596;2024-02-14T09:16:44;18.02;;;16.50;;
36303;SDS011;22335;49.800;8.596;2024-02-14T09:23:28;18.38;;;16.98;;
36303;SDS011;22335;49.800;8.596;2024-02-14T09:30:14;17.60;;;16.20;;
36303;SDS011;22335;49.800;8.596;2024-02-14T09:37:02;17.65;;;16.27;;
36303;SDS011;22335;49.800;8.596;2024-02-14T09:43:47;17.15;;;15.57;;
36303;SDS011;22335;49.800;8.596;2024-02-14T09:50:33;17.58;;;16.20;;
36303;SDS011;22335;49.800;8.596;2024-02-14T09:57:17;18.35;;;16.70;;
36303;SDS011;22335;49.800;8.596;2024-02-14T10:04:01;18.80;;;17.17;;
36303;SDS011;22335;49.800;8.596;2024-02-14T10:10:47;17.52;;;16.02;;
36303;SDS011;22335;49.800;8.596;2024-02-14T10:17:32;18.33;;;16.60;;
36303;SDS011;22335;49.800;8.596;2024-02-14T10:24:16;18.42;;;17.00;;
36303;SDS011;22335;49.800;8.596;2024-02-14T10:31:05;17.60;;;16.00;;
36303;SDS011;22335;49.800;8.596;2024-02-14T10:37:50;17.15;;;15.95;;
36303;SDS011;22335;49.800;8.596;2024-02-14T10:44:34;16.95;;;15.60;;
36303;SDS011;22335;49.800;8.596;2024-02-14T10:51:20;17.30;;;15.80;;
36303;SDS011;22335;49.800;8.596;2024-02-14T10:58:04;17.65;;;16.00;;
36303;SDS011;22335;49.800;8.596;2024-02-14T11:04:49;16.65;;;15.40;;
36303;SDS011;22335;49.800;8.596;2024-02-14T11:11:35;17.38;;;15.65;;
36303;SDS011;22335;49.800;8.596;2024-02-14T11:18:24;16.65;;;15.25;;
36303;SDS011;22335;49.800;8.596;2024-02-14T11:25:14;16.83;;;15.50;;
36303;SDS011;22335;49.800;8.596;2024-02-14T11:31:59;17.40;;;15.68;;
36303;SDS011;22335;49.800;8.596;2024-02-14T11:38:44;16.98;;;15.77;;
36303;SDS011;22335;49.800;8.596;2024-02-14T11:45:28;16.08;;;14.88;;
36303;SDS011;22335;49.800;8.596;2024-02-14T11:52:13;15.27;;;14.27;;
36303;SDS011;22335;49.800;8.596;2024-02-14T11:58:57;15.38;;;14.32;;
36303;SDS011;22335;49.800;8.596;2024-02-14T12:05:41;15.10;;;14.10;;
36303;SDS011;22335;49.800;8.596;2024-02-14T12:12:27;14.23;;;13.38;;
36303;SDS011;22335;49.800;8.596;2024-02-14T12:19:13;14.13;;;13.13;;
36303;SDS011;22335;49.800;8.596;2024-02-14T12:26:00;14.02;;;13.10;;
36303;SDS011;22335;49.800;8.596;2024-02-14T12:32:57;13.77;;;12.98;;
36303;SDS011;22335;49.800;8.596;2024-02-14T12:39:42;14.52;;;13.43;;
36303;SDS011;22335;49.800;8.596;2024-02-14T12:46:26;13.80;;;12.90;;
36303;SDS011;22335;49.800;8.596;2024-02-14T12:53:12;14.30;;;13.40;;
36303;SDS011;22335;49.800;8.596;2024-02-14T12:59:56;13.30;;;12.50;;
36303;SDS011;22335;49.800;8.596;2024-02-14T13:06:39;13.45;;;12.52;;
36303;SDS011;22335;49.800;8.596;2024-02-14T13:13:25;13.05;;;12.10;;
36303;SDS011;22335;49.800;8.596;2024-02-14T13:20:11;12.93;;;12.05;;
36303;SDS011;22335;49.800;8.596;2024-02-14T13:26:56;12.88;;;12.00;;
36303;SDS011;22335;49.800;8.596;2024-02-14T13:33:41;13.20;;;12.40;;
36303;SDS011;22335;49.800;8.596;2024-02-14T13:40:24;14.18;;;13.25;;
36303;SDS011;22335;49.800;8.596;2024-02-14T13:47:08;13.57;;;12.75;;
36303;SDS011;22335;49.800;8.596;2024-02-14T13:53:53;14.57;;;13.50;;
36303;SDS011;22335;49.800;8.596;2024-02-14T14:00:37;14.63;;;13.52;;
36303;SDS011;22335;49.800;8.596;2024-02-14T14:07:21;15.50;;;13.95;;
36303;SDS011;22335;49.800;8.596;2024-02-14T14:14:06;15.90;;;14.70;;
36303;SDS011;22335;49.800;8.596;2024-02-14T14:20:52;15.20;;;13.88;;
36303;SDS011;22335;49.800;8.596;2024-02-14T14:27:36;15.50;;;14.30;;
36303;SDS011;22335;49.800;8.596;2024-02-14T14:34:21;15.20;;;14.00;;
36303;SDS011;22335;49.800;8.596;2024-02-14T14:41:06;14.75;;;13.55;;
36303;SDS011;22335;49.800;8.596;2024-02-14T14:47:51;15.50;;;14.40;;
36303;SDS011;22335;49.800;8.596;2024-02-14T14:54:36;14.70;;;13.60;;
36303;SDS011;22335;49.800;8.596;2024-02-14T15:01:19;15.30;;;14.30;;
36303;SDS011;22335;49.800;8.596;2024-02-14T15:08:03;15.20;;;14.05;;
36303;SDS011;22335;49.800;8.596;2024-02-14T15:14:50;15.80;;;14.50;;
36303;SDS011;22335;49.800;8.596;2024-02-14T15:21:33;15.10;;;13.93;;
36303;SDS011;22335;49.800;8.596;2024-02-14T15:28:17;15.45;;;14.25;;
36303;SDS011;22335;49.800;8.596;2024-02-14T15:35:08;16.10;;;14.70;;
36303;SDS011;22335;49.800;8.596;2024-02-14T15:41:51;16.45;;;15.05;;
36303;SDS011;22335;49.800;8.596;2024-02-14T15:48:34;16.63;;;15.32;;
36303;SDS011;22335;49.800;8.596;2024-02-14T15:55:19;15.60;;;14.40;;
36303;SDS011;22335;49.800;8.596;2024-02-14T16:02:03;15.40;;;14.20;;
36303;SDS011;22335;49.800;8.596;2024-02-14T16:08:48;15.40;;;14.20;;
36303;SDS011;22335;49.800;8.596;2024-02-14T16:15:34;14.90;;;13.70;;
36303;SDS011;22335;49.800;8.596;2024-02-14T16:22:18;14.80;;;13.60;;
36303;SDS011;22335;49.800;8.596;2024-02-14T16:29:01;15.43;;;14.05;;
36303;SDS011;22335;49.800;8.596;2024-02-14T16:35:46;15.13;;;14.10;;
36303;SDS011;22335;49.800;8.596;2024-02-14T16:42:30;15.80;;;14.70;;
36303;SDS011;22335;49.800;8.596;2024-02-14T16:49:13;14.90;;;13.85;;
36303;SDS011;22335;49.800;8.596;2024-02-14T16:56:00;16.25;;;15.13;;
36303;SDS011;22335;49.800;8.596;2024-02-14T17:02:43;15.50;;;14.35;;
36303;SDS011;22335;49.800;8.596;2024-02-14T17:09:27;15.43;;;14.25;;
36303;SDS011;22335;49.800;8.596;2024-02-14T17:16:12;15.10;;;14.20;;
36303;SDS011;22335;49.800;8.596;2024-02-14T17:22:56;16.10;;;15.10;;
36303;SDS011;22335;49.800;8.596;2024-02-14T17:29:40;15.57;;;14.40;;
36303;SDS011;22335;49.800;8.596;2024-02-14T17:36:24;15.95;;;14.85;;
36303;SDS011;22335;49.800;8.596;2024-02-14T17:43:08;16.25;;;15.30;;
36303;SDS011;22335;49.800;8.596;2024-02-14T17:49:51;15.95;;;14.85;;
36303;SDS011;22335;49.800;8.596;2024-02-14T17:56:37;16.67;;;15.30;;
36303;SDS011;22335;49.800;8.596;2024-02-14T18:03:21;15.98;;;14.98;;
36303;SDS011;22335;49.800;8.596;2024-02-14T18:10:05;16.00;;;15.10;;
36303;SDS011;22335;49.800;8.596;2024-02-14T18:16:50;16.40;;;15.40;;
36303;SDS011;22335;49.800;8.596;2024-02-14T18:23:34;16.23;;;15.13;;
36303;SDS011;22335;49.800;8.596;2024-02-14T18:30:19;16.45;;;15.45;;
36303;SDS011;22335;49.800;8.596;2024-02-14T18:37:05;16.00;;;15.00;;
36303;SDS011;22335;49.800;8.596;2024-02-14T18:43:48;16.23;;;15.00;;
36303;SDS011;22335;49.800;8.596;2024-02-14T18:50:32;16.48;;;15.48;;
36303;SDS011;22335;49.800;8.596;2024-02-14T18:57:17;16.48;;;15.23;;
36303;SDS011;22335;49.800;8.596;2024-02-14T19:04:00;16.30;;;15.20;;
36303;SDS011;22335;49.800;8.596;2024-02-14T19:10:46;15.05;;;13.95;;
36303;SDS011;22335;49.800;8.596;2024-02-14T19:17:30;16.92;;;15.70;;
36303;SDS011;22335;49.800;8.596;2024-02-14T19:24:15;16.40;;;15.20;;
36303;SDS011;22335;49.800;8.596;2024-02-14T19:30:59;15.45;;;14.38;;
36303;SDS011;22335;49.800;8.596;2024-02-14T19:37:44;15.38;;;14.48;;
36303;SDS011;22335;49.800;8.596;2024-02-14T19:44:28;16.58;;;15.40;;
36303;SDS011;22335;49.800;8.596;2024-02-14T19:51:11;15.35;;;14.25;;
36303;SDS011;22335;49.800;8.596;2024-02-14T19:57:56;15.45;;;14.43;;
36303;SDS011;22335;49.800;8.596;2024-02-14T20:04:40;16.63;;;15.32;;
36303;SDS011;22335;49.800;8.596;2024-02-14T20:11:24;16.40;;;15.30;;
36303;SDS011;22335;49.800;8.596;2024-02-14T20:18:09;16.25;;;15.25;;
36303;SDS011;22335;49.800;8.596;2024-02-14T20:24:53;15.43;;;14.32;;
36303;SDS011;22335;49.800;8.596;2024-02-14T20:31:36;16.02;;;15.07;;
36303;SDS011;22335;49.800;8.596;2024-02-14T20:38:22;15.27;;;14.25;;
36303;SDS011;22335;49.800;8.596;2024-02-14T20:45:06;15.32;;;14.13;;
36303;SDS011;22335;49.800;8.596;2024-02-14T20:51:52;15.43;;;14.15;;
36303;SDS011;22335;49.800;8.596;2024-02-14T20:58:37;16.33;;;14.93;;
36303;SDS011;22335;49.800;8.596;2024-02-14T21:05:23;16.25;;;14.73;;
36303;SDS011;22335;49.800;8.596;2024-02-14T21:12:07;15.93;;;14.73;;
36303;SDS011;22335;49.800;8.596;2024-02-14T21:18:52;15.70;;;14.55;;
36303;SDS011;22335;49.800;8.596;2024-02-14T21:25:36;16.13;;;15.00;;
36303;SDS011;22335;49.800;8.596;2024-02-14T21:32:21;15.68;;;14.55;;
36303;SDS011;22335;49.800;8.596;2024-02-14T21:39:06;16.10;;;14.80;;
36303;SDS011;22335;49.800;8.596;2024-02-14T21:45:52;17.48;;;16.02;;
36303;SDS011;22335;49.800;8.596;2024-02-14T21:52:36;15.98;;;14.32;;
36303;SDS011;22335;49.800;8.596;2024-02-14T21:59:20;17.17;;;15.52;;
36303;SDS011;22335;49.800;8.596;2024-02-14T22:06:05;17.85;;;16.20;;
36303;SDS011;22335;49.800;8.596;2024-02-14T22:12:49;16.45;;;15.07;;
36303;SDS011;22335;49.800;8.596;2024-02-14T22:19:35;17.25;;;15.60;;
36303;SDS011;22335;49.800;8.596;2024-02-14T22:26:21;16.70;;;15.57;;
36303;SDS011;22335;49.800;8.596;2024-02-14T22:33:05;16.58;;;15.05;;
36303;SDS011;22335;49.800;8.596;2024-02-14T22:39:50;16.10;;;14.50;;
36303;SDS011;22335;49.800;8.596;2024-02-14T22:46:35;15.57;;;14.35;;
36303;SDS011;22335;49.800;8.596;2024-02-14T22:53:20;15.80;;;14.50;;
36303;SDS011;22335;49.800;8.596;2024-02-14T23:00:06;15.30;;;13.85;;
36303;SDS011;22335;49.800;8.596;2024-02-14T23:06:54;15.02;;;13.93;;
36303;SDS011;22335;49.800;8.596;2024-02-14T23:13:37;17.05;;;15.40;;
36303;SDS011;22335;49.800;8.596;2024-02-14T23:20:22;15.13;;;13.90;;
36303;SDS011;22335;49.800;8.596;2024-02-14T23:27:06;15.40;;;14.10;;
36303;SDS011;22335;49.800;8.596;2024-02-14T23:33:50;16.25;;;14.55;;
36303;SDS011;22335;49.800;8.596;2024-02-14T23:40:35;15.18;;;14.10;;
36303;SDS011;22335;49.800;8.596;2024-02-14T23:47:18;15.43;;;14.07;;
36303;SDS011;22335;49.800;8.596;2024-02-14T23:54:02;15.77;;;14.38;;
